sensor_id;sensor_type;location;lat;lon;timestamp;temperature;humidity
28069;DHT22;15382;47.578;8.086;2023-05-29T00:01:26;13.40;99.90
28069;DHT22;15382;47.578;8.086;2023-05-29T00:11:27;14.20;99.90
28069;DHT22;15382;47.578;8.086;2023-05-29T00:21:27;14.20;99.90
28069;DHT22;15382;47.578;8.086;2023-05-29T00:31:28;13.60;99.90
28069;DHT22;15382;47.578;8.086;2023-05-29T00:41:28;13.00;99.90
28069;DHT22;15382;47.578;8.086;2023-05-29T00:51:29;14.00;99.90
28069;DHT22;15382;47.578;8.086;2023-05-29T01:01:31;13.60;99.90
28069;DHT22;15382;47.578;8.086;2023-05-29T01:31:46;13.50;99.90
28069;DHT22;15382;47.578;8.086;2023-05-29T01:41:50;13.30;99.90
28069;DHT22;15382;47.578;8.086;2023-05-29T01:51:51;13.80;99.90
28069;DHT22;15382;47.578;8.086;2023-05-29T02:01:52;13.70;99.90
28069;DHT22;15382;47.578;8.086;2023-05-29T02:11:53;13.40;99.90
28069;DHT22;15382;47.578;8.086;2023-05-29T02:21:53;13.40;99.90
28069;DHT22;15382;47.578;8.086;2023-05-29T02:31:55;13.10;99.90
28069;DHT22;15382;47.578;8.086;2023-05-29T02:41:56;12.80;99.90
28069;DHT22;15382;47.578;8.086;2023-05-29T02:51:56;13.20;99.90
28069;DHT22;15382;47.578;8.086;2023-05-29T03:01:57;13.10;99.90
28069;DHT22;15382;47.578;8.086;2023-05-29T03:11:58;13.10;99.90
28069;DHT22;15382;47.578;8.086;2023-05-29T03:22:02;13.20;99.90
28069;DHT22;15382;47.578;8.086;2023-05-29T03:32:04;13.10;99.90
28069;DHT22;15382;47.578;8.086;2023-05-29T03:42:07;12.90;99.90
28069;DHT22;15382;47.578;8.086;2023-05-29T03:52:08;11.80;99.90
28069;DHT22;15382;47.578;8.086;2023-05-29T04:02:10;11.50;99.90
28069;DHT22;15382;47.578;8.086;2023-05-29T04:12:10;11.70;99.90
28069;DHT22;15382;47.578;8.086;2023-05-29T04:22:11;11.80;99.90
28069;DHT22;15382;47.578;8.086;2023-05-29T04:32:12;11.70;99.90
28069;DHT22;15382;47.578;8.086;2023-05-29T04:42:13;12.00;99.90
28069;DHT22;15382;47.578;8.086;2023-05-29T04:52:15;11.80;99.90
28069;DHT22;15382;47.578;8.086;2023-05-29T05:02:16;11.80;99.90
28069;DHT22;15382;47.578;8.086;2023-05-29T05:12:17;11.80;99.90
28069;DHT22;15382;47.578;8.086;2023-05-29T05:22:18;12.40;99.90
28069;DHT22;15382;47.578;8.086;2023-05-29T05:32:19;12.60;99.90
28069;DHT22;15382;47.578;8.086;2023-05-29T05:42:25;12.80;99.90
28069;DHT22;15382;47.578;8.086;2023-05-29T05:52:31;13.20;99.90
28069;DHT22;15382;47.578;8.086;2023-05-29T06:02:34;13.90;99.90
28069;DHT22;15382;47.578;8.086;2023-05-29T06:12:35;14.30;99.90
28069;DHT22;15382;47.578;8.086;2023-05-29T06:22:47;14.80;99.90
28069;DHT22;15382;47.578;8.086;2023-05-29T06:32:51;15.40;99.90
28069;DHT22;15382;47.578;8.086;2023-05-29T06:42:51;16.00;99.90
28069;DHT22;15382;47.578;8.086;2023-05-29T06:53:05;16.50;99.90
28069;DHT22;15382;47.578;8.086;2023-05-29T07:03:22;16.80;99.90
28069;DHT22;15382;47.578;8.086;2023-05-29T07:13:23;17.50;99.90
28069;DHT22;15382;47.578;8.086;2023-05-29T07:23:25;18.20;99.90
28069;DHT22;15382;47.578;8.086;2023-05-29T07:33:27;19.10;99.90
28069;DHT22;15382;47.578;8.086;2023-05-29T07:43:30;19.70;99.90
28069;DHT22;15382;47.578;8.086;2023-05-29T07:53:35;20.30;99.90
28069;DHT22;15382;47.578;8.086;2023-05-29T08:03:36;21.30;99.90
28069;DHT22;15382;47.578;8.086;2023-05-29T08:13:37;21.80;99.90
28069;DHT22;15382;47.578;8.086;2023-05-29T08:23:38;22.10;99.90
28069;DHT22;15382;47.578;8.086;2023-05-29T08:33:38;22.90;99.90
28069;DHT22;15382;47.578;8.086;2023-05-29T08:43:39;23.10;99.90
28069;DHT22;15382;47.578;8.086;2023-05-29T08:53:41;22.90;99.90
28069;DHT22;15382;47.578;8.086;2023-05-29T09:03:42;24.30;99.60
28069;DHT22;15382;47.578;8.086;2023-05-29T09:13:43;25.10;98.90
28069;DHT22;15382;47.578;8.086;2023-05-29T09:23:43;24.60;97.70
28069;DHT22;15382;47.578;8.086;2023-05-29T09:33:47;25.20;96.60
28069;DHT22;15382;47.578;8.086;2023-05-29T09:43:49;25.90;93.30
28069;DHT22;15382;47.578;8.086;2023-05-29T09:53:50;26.10;92.40
28069;DHT22;15382;47.578;8.086;2023-05-29T10:03:51;26.50;90.30
28069;DHT22;15382;47.578;8.086;2023-05-29T10:13:52;26.80;85.20
28069;DHT22;15382;47.578;8.086;2023-05-29T10:23:54;26.10;86.20
28069;DHT22;15382;47.578;8.086;2023-05-29T10:44:02;27.40;80.40
28069;DHT22;15382;47.578;8.086;2023-05-29T10:54:05;27.50;82.80
28069;DHT22;15382;47.578;8.086;2023-05-29T11:14:21;28.40;79.50
28069;DHT22;15382;47.578;8.086;2023-05-29T11:24:23;28.00;80.00
28069;DHT22;15382;47.578;8.086;2023-05-29T11:34:24;28.20;78.20
28069;DHT22;15382;47.578;8.086;2023-05-29T11:44:26;27.60;81.60
28069;DHT22;15382;47.578;8.086;2023-05-29T11:54:27;28.40;77.00
28069;DHT22;15382;47.578;8.086;2023-05-29T12:04:27;28.70;73.20
28069;DHT22;15382;47.578;8.086;2023-05-29T12:14:28;28.60;76.10
28069;DHT22;15382;47.578;8.086;2023-05-29T12:24:29;27.60;76.90
28069;DHT22;15382;47.578;8.086;2023-05-29T12:34:34;28.00;77.20
28069;DHT22;15382;47.578;8.086;2023-05-29T12:44:39;28.60;78.10
28069;DHT22;15382;47.578;8.086;2023-05-29T12:54:42;28.50;75.00
28069;DHT22;15382;47.578;8.086;2023-05-29T13:04:42;28.90;70.90
28069;DHT22;15382;47.578;8.086;2023-05-29T13:14:45;28.80;71.50
28069;DHT22;15382;47.578;8.086;2023-05-29T13:24:45;28.40;71.50
28069;DHT22;15382;47.578;8.086;2023-05-29T13:34:46;28.40;73.10
28069;DHT22;15382;47.578;8.086;2023-05-29T13:44:47;28.60;72.50
28069;DHT22;15382;47.578;8.086;2023-05-29T13:54:48;28.80;77.80
28069;DHT22;15382;47.578;8.086;2023-05-29T14:04:49;29.00;73.80
28069;DHT22;15382;47.578;8.086;2023-05-29T14:14:49;27.90;79.20
28069;DHT22;15382;47.578;8.086;2023-05-29T14:24:50;28.10;74.40
28069;DHT22;15382;47.578;8.086;2023-05-29T14:34:51;28.10;73.80
28069;DHT22;15382;47.578;8.086;2023-05-29T14:44:52;28.50;72.80
28069;DHT22;15382;47.578;8.086;2023-05-29T14:54:53;28.70;70.00
28069;DHT22;15382;47.578;8.086;2023-05-29T15:04:54;28.80;67.80
28069;DHT22;15382;47.578;8.086;2023-05-29T15:14:56;28.40;69.70
28069;DHT22;15382;47.578;8.086;2023-05-29T15:24:57;28.30;66.00
28069;DHT22;15382;47.578;8.086;2023-05-29T15:34:57;27.70;66.40
28069;DHT22;15382;47.578;8.086;2023-05-29T15:44:58;27.70;63.70
28069;DHT22;15382;47.578;8.086;2023-05-29T15:54:59;27.30;63.70
28069;DHT22;15382;47.578;8.086;2023-05-29T16:05:00;27.00;61.90
28069;DHT22;15382;47.578;8.086;2023-05-29T16:15:00;26.50;64.10
28069;DHT22;15382;47.578;8.086;2023-05-29T16:25:01;26.30;65.30
28069;DHT22;15382;47.578;8.086;2023-05-29T16:35:02;25.70;66.20
28069;DHT22;15382;47.578;8.086;2023-05-29T16:45:03;25.70;65.10
28069;DHT22;15382;47.578;8.086;2023-05-29T16:55:04;25.40;67.40
28069;DHT22;15382;47.578;8.086;2023-05-29T17:05:05;25.30;67.50
28069;DHT22;15382;47.578;8.086;2023-05-29T17:15:06;25.00;67.50
28069;DHT22;15382;47.578;8.086;2023-05-29T17:25:07;24.90;68.60
28069;DHT22;15382;47.578;8.086;2023-05-29T17:35:07;24.70;67.30
28069;DHT22;15382;47.578;8.086;2023-05-29T17:45:08;24.20;67.90
28069;DHT22;15382;47.578;8.086;2023-05-29T17:55:09;24.20;68.90
28069;DHT22;15382;47.578;8.086;2023-05-29T18:05:10;24.80;69.50
28069;DHT22;15382;47.578;8.086;2023-05-29T18:15:11;25.20;68.00
28069;DHT22;15382;47.578;8.086;2023-05-29T18:25:12;24.70;68.80
28069;DHT22;15382;47.578;8.086;2023-05-29T18:35:14;23.50;72.80
28069;DHT22;15382;47.578;8.086;2023-05-29T18:45:15;22.60;75.90
28069;DHT22;15382;47.578;8.086;2023-05-29T18:55:17;21.90;77.70
28069;DHT22;15382;47.578;8.086;2023-05-29T19:05:18;21.50;79.50
28069;DHT22;15382;47.578;8.086;2023-05-29T19:15:19;21.00;81.40
28069;DHT22;15382;47.578;8.086;2023-05-29T19:25:20;20.70;82.80
28069;DHT22;15382;47.578;8.086;2023-05-29T19:35:21;20.40;84.60
28069;DHT22;15382;47.578;8.086;2023-05-29T19:45:21;20.10;86.90
28069;DHT22;15382;47.578;8.086;2023-05-29T19:55:22;19.30;90.40
28069;DHT22;15382;47.578;8.086;2023-05-29T20:05:23;19.00;91.80
28069;DHT22;15382;47.578;8.086;2023-05-29T20:15:23;18.70;92.90
28069;DHT22;15382;47.578;8.086;2023-05-29T20:25:25;18.20;94.90
28069;DHT22;15382;47.578;8.086;2023-05-29T20:35:26;17.80;96.20
28069;DHT22;15382;47.578;8.086;2023-05-29T20:45:28;17.40;98.00
28069;DHT22;15382;47.578;8.086;2023-05-29T20:55:30;17.10;99.30
28069;DHT22;15382;47.578;8.086;2023-05-29T21:05:30;17.10;99.10
28069;DHT22;15382;47.578;8.086;2023-05-29T21:15:31;16.70;99.90
28069;DHT22;15382;47.578;8.086;2023-05-29T21:25:32;16.40;99.90
28069;DHT22;15382;47.578;8.086;2023-05-29T21:35:32;16.20;99.90
28069;DHT22;15382;47.578;8.086;2023-05-29T21:45:33;16.10;99.90
28069;DHT22;15382;47.578;8.086;2023-05-29T21:55:33;15.80;99.90
28069;DHT22;15382;47.578;8.086;2023-05-29T22:05:34;15.40;99.90
28069;DHT22;15382;47.578;8.086;2023-05-29T22:15:35;15.30;99.90
28069;DHT22;15382;47.578;8.086;2023-05-29T22:25:35;15.10;99.90
28069;DHT22;15382;47.578;8.086;2023-05-29T22:35:36;15.00;99.90
28069;DHT22;15382;47.578;8.086;2023-05-29T22:45:37;15.10;99.90
28069;DHT22;15382;47.578;8.086;2023-05-29T22:55:37;15.80;99.90
28069;DHT22;15382;47.578;8.086;2023-05-29T23:05:38;15.90;99.90
28069;DHT22;15382;47.578;8.086;2023-05-29T23:15:39;16.20;99.90
28069;DHT22;15382;47.578;8.086;2023-05-29T23:25:44;16.00;99.90
28069;DHT22;15382;47.578;8.086;2023-05-29T23:35:46;15.50;99.90
28069;DHT22;15382;47.578;8.086;2023-05-29T23:45:47;15.50;99.90
28069;DHT22;15382;47.578;8.086;2023-05-29T23:55:48;15.60;99.90
